Time;durP1;ratioP1;P1;durP2;ratioP2;P2;SDS_P1;SDS_P2;PMS_P1;PMS_P2;Temp;Humidity;BMP_temperature;BMP_pressure;BME280_temperature;BME280_humidity;BME280_pressure;Samples;Min_cycle;Max_cycle;Signal;HPM_P1;HPM_P2
2021/07/24 00:02:10;;;;;;;9.20;8.30;;;;;;;;;;5033350;28;20516;-58
2021/07/24 00:04:38;;;;;;;11.53;9.07;;;;;;;;;;5033414;28;20515;-58
2021/07/24 00:07:06;;;;;;;10.83;8.60;;;;;;;;;;5033359;28;20503;-58
2021/07/24 00:09:33;;;;;;;9.93;8.90;;;;;;;;;;5032966;28;20448;-58
2021/07/24 00:12:00;;;;;;;8.80;7.17;;;;;;;;;;5032838;28;20477;-58
2021/07/24 00:14:28;;;;;;;8.37;7.57;;;;;;;;;;5033199;28;20481;-58
2021/07/24 00:16:55;;;;;;;9.93;8.30;;;;;;;;;;5033255;28;20444;-58
2021/07/24 00:19:22;;;;;;;11.13;8.60;;;;;;;;;;5032817;28;20928;-58
2021/07/24 00:21:51;;;;;;;10.30;9.23;;;;;;;;;;5033155;28;20473;-58
2021/07/24 00:24:18;;;;;;;10.20;8.50;;;;;;;;;;5035782;28;20441;-58
2021/07/24 00:26:46;;;;;;;10.90;9.07;;;;;;;;;;5037193;28;20523;-58
2021/07/24 00:29:14;;;;;;;9.67;8.67;;;;;;;;;;5037131;28;20449;-58
2021/07/24 00:31:41;;;;;;;9.57;8.07;;;;;;;;;;5036769;28;20465;-58
2021/07/24 00:34:09;;;;;;;11.30;9.13;;;;;;;;;;5036720;28;21022;-58
2021/07/24 00:36:36;;;;;;;9.60;8.37;;;;;;;;;;5037551;28;20842;-58
2021/07/24 00:39:07;;;;;;;11.63;8.47;;;;;;;;;;5036951;28;20445;-58
2021/07/24 00:41:40;;;;;;;13.10;9.30;;;;;;;;;;5036771;28;20557;-57
2021/07/24 00:44:08;;;;;;;11.93;9.87;;;;;;;;;;5036924;28;20483;-58
2021/07/24 00:46:36;;;;;;;12.13;9.73;;;;;;;;;;5036844;28;20441;-58
2021/07/24 00:49:04;;;;;;;12.80;9.37;;;;;;;;;;5036730;28;20502;-56
2021/07/24 00:51:33;;;;;;;12.10;9.87;;;;;;;;;;5036786;28;20460;-58
2021/07/24 00:54:00;;;;;;;10.33;9.23;;;;;;;;;;5036292;28;20481;-58
2021/07/24 00:56:30;;;;;;;9.47;8.50;;;;;;;;;;5036694;28;20780;-57
2021/07/24 00:58:57;;;;;;;11.03;9.83;;;;;;;;;;5036772;28;20495;-58
2021/07/24 01:01:25;;;;;;;12.27;9.60;;;;;;;;;;5036755;28;20468;-58
2021/07/24 01:03:53;;;;;;;13.73;9.73;;;;;;;;;;5036328;28;20533;-58
2021/07/24 01:06:20;;;;;;;14.63;9.17;;;;;;;;;;5036368;28;20440;-58
2021/07/24 01:08:49;;;;;;;15.33;9.70;;;;;;;;;;5036282;28;20483;-57
2021/07/24 01:11:16;;;;;;;13.37;10.07;;;;;;;;;;5036296;28;20493;-57
2021/07/24 01:13:45;;;;;;;12.00;9.80;;;;;;;;;;5036426;28;20485;-57
2021/07/24 01:16:13;;;;;;;12.33;9.20;;;;;;;;;;5036525;28;20502;-57
2021/07/24 01:18:40;;;;;;;12.30;9.23;;;;;;;;;;5036084;28;20451;-57
2021/07/24 01:21:08;;;;;;;12.37;10.40;;;;;;;;;;5036178;28;20816;-59
2021/07/24 01:23:37;;;;;;;13.50;9.50;;;;;;;;;;5036467;28;20441;-59
2021/07/24 01:26:05;;;;;;;12.40;10.07;;;;;;;;;;5036113;28;20495;-58
2021/07/24 01:28:32;;;;;;;11.87;9.50;;;;;;;;;;5036546;28;20448;-59
2021/07/24 01:31:02;;;;;;;12.97;10.50;;;;;;;;;;5035928;28;21042;-58
2021/07/24 01:33:29;;;;;;;14.50;10.17;;;;;;;;;;5036977;28;20486;-59
2021/07/24 01:35:56;;;;;;;11.60;10.17;;;;;;;;;;5037296;28;20445;-62
2021/07/24 01:38:24;;;;;;;12.40;10.23;;;;;;;;;;5035977;28;20449;-62
2021/07/24 01:40:52;;;;;;;12.27;10.27;;;;;;;;;;5035697;28;20485;-62
2021/07/24 01:43:19;;;;;;;13.20;10.20;;;;;;;;;;5036028;28;20503;-61
2021/07/24 01:45:47;;;;;;;12.20;9.93;;;;;;;;;;5035705;28;20941;-61
2021/07/24 01:48:16;;;;;;;13.37;10.23;;;;;;;;;;5036271;28;20449;-60
2021/07/24 01:53:28;;;;;;;16.43;11.17;;;;;;;;;;5036429;28;20966;-61
2021/07/24 01:56:01;;;;;;;14.60;10.63;;;;;;;;;;5035734;28;20547;-62
2021/07/24 01:58:30;;;;;;;14.73;10.70;;;;;;;;;;5036313;28;20433;-62
2021/07/24 02:00:59;;;;;;;12.63;10.60;;;;;;;;;;5037144;28;20469;-59
2021/07/24 02:03:28;;;;;;;12.53;10.93;;;;;;;;;;5035945;28;21008;-59
2021/07/24 02:05:55;;;;;;;14.00;10.00;;;;;;;;;;5035414;28;20448;-58
2021/07/24 02:08:23;;;;;;;14.30;10.10;;;;;;;;;;5036092;28;20491;-57
2021/07/24 02:10:51;;;;;;;14.00;11.60;;;;;;;;;;5035355;28;20841;-58
2021/07/24 02:13:20;;;;;;;14.07;10.30;;;;;;;;;;5035624;28;20473;-57
2021/07/24 02:15:47;;;;;;;10.77;9.17;;;;;;;;;;5035405;28;20523;-59
2021/07/24 02:18:16;;;;;;;12.60;10.40;;;;;;;;;;5035368;28;20448;-57
2021/07/24 02:20:44;;;;;;;13.10;11.10;;;;;;;;;;5035202;28;20556;-58
2021/07/24 02:23:11;;;;;;;13.20;9.97;;;;;;;;;;5034780;28;20994;-58
2021/07/24 02:25:38;;;;;;;12.70;10.53;;;;;;;;;;5034793;28;20448;-58
2021/07/24 02:28:06;;;;;;;12.67;10.40;;;;;;;;;;5035105;28;20444;-58
2021/07/24 02:30:34;;;;;;;14.07;11.83;;;;;;;;;;5034878;28;20801;-58
2021/07/24 02:33:02;;;;;;;13.00;11.20;;;;;;;;;;5034906;28;20441;-56
2021/07/24 02:35:29;;;;;;;15.50;10.73;;;;;;;;;;5034605;28;20441;-57
2021/07/24 02:37:56;;;;;;;14.67;10.70;;;;;;;;;;5034860;28;20554;-58
2021/07/24 02:40:24;;;;;;;13.43;9.33;;;;;;;;;;5034344;28;20468;-58
2021/07/24 02:42:51;;;;;;;11.73;9.80;;;;;;;;;;5034760;28;20425;-58
2021/07/24 02:45:18;;;;;;;13.93;11.13;;;;;;;;;;5034476;28;20937;-58
2021/07/24 02:47:47;;;;;;;12.83;11.43;;;;;;;;;;5033689;28;20514;-58
2021/07/24 02:50:14;;;;;;;15.00;9.70;;;;;;;;;;5034648;28;20507;-59
2021/07/24 02:52:42;;;;;;;14.17;10.57;;;;;;;;;;5034285;28;20933;-58
2021/07/24 02:55:09;;;;;;;13.67;10.80;;;;;;;;;;5034100;28;20476;-59
2021/07/24 02:57:37;;;;;;;12.67;10.17;;;;;;;;;;5034148;28;20507;-59
2021/07/24 03:00:04;;;;;;;10.50;9.10;;;;;;;;;;5034423;28;20791;-58
2021/07/24 03:02:31;;;;;;;12.83;10.00;;;;;;;;;;5034096;28;20499;-59
2021/07/24 03:05:00;;;;;;;12.43;11.07;;;;;;;;;;5034360;28;20437;-58
2021/07/24 03:07:27;;;;;;;12.27;10.67;;;;;;;;;;5034200;28;21003;-58
2021/07/24 03:09:54;;;;;;;11.90;10.10;;;;;;;;;;5034294;28;20495;-58
2021/07/24 03:12:22;;;;;;;11.93;10.10;;;;;;;;;;5034135;28;20465;-57
2021/07/24 03:14:49;;;;;;;15.73;10.60;;;;;;;;;;5034209;28;20527;-56
2021/07/24 03:17:16;;;;;;;13.73;11.30;;;;;;;;;;5033880;28;20448;-57
2021/07/24 03:19:43;;;;;;;12.57;10.87;;;;;;;;;;5033827;28;20499;-57
2021/07/24 03:22:12;;;;;;;16.40;11.47;;;;;;;;;;5033970;28;20469;-59
2021/07/24 03:24:39;;;;;;;14.53;11.23;;;;;;;;;;5033953;28;20441;-57
2021/07/24 03:27:06;;;;;;;13.20;11.67;;;;;;;;;;5033987;28;20852;-57
2021/07/24 03:29:34;;;;;;;14.57;11.00;;;;;;;;;;5033956;28;20453;-57
2021/07/24 03:32:01;;;;;;;12.43;10.67;;;;;;;;;;5033973;28;20465;-58
2021/07/24 03:34:28;;;;;;;12.33;9.90;;;;;;;;;;5033773;28;20546;-59
2021/07/24 03:36:56;;;;;;;13.97;10.20;;;;;;;;;;5033903;28;20806;-58
2021/07/24 03:39:24;;;;;;;15.23;10.27;;;;;;;;;;5033811;28;20444;-58
2021/07/24 03:41:51;;;;;;;13.50;10.77;;;;;;;;;;5034121;28;20473;-59
2021/07/24 03:44:19;;;;;;;11.20;9.77;;;;;;;;;;5035328;28;20843;-59
2021/07/24 03:46:46;;;;;;;11.50;10.10;;;;;;;;;;5034675;28;20444;-59
2021/07/24 03:49:13;;;;;;;12.07;10.27;;;;;;;;;;5034892;28;20590;-57
2021/07/24 03:51:40;;;;;;;12.63;10.37;;;;;;;;;;5035968;28;20464;-59
2021/07/24 03:54:07;;;;;;;11.90;10.07;;;;;;;;;;5034457;28;20554;-59
2021/07/24 03:56:36;;;;;;;15.80;10.50;;;;;;;;;;5034499;28;20449;-59
2021/07/24 03:59:03;;;;;;;12.17;10.57;;;;;;;;;;5034061;28;20453;-59
2021/07/24 04:01:31;;;;;;;14.13;10.80;;;;;;;;;;5033616;28;21003;-58
2021/07/24 04:03:58;;;;;;;15.63;10.70;;;;;;;;;;5033401;28;20499;-59
2021/07/24 04:08:22;;;;;;;14.10;11.73;;;;;;;;;;5092520;27;20541;-59
2021/07/24 04:10:50;;;;;;;13.00;11.20;;;;;;;;;;5091633;28;20458;-60
2021/07/24 04:13:17;;;;;;;13.43;10.17;;;;;;;;;;5091493;28;20451;-58
2021/07/24 04:15:44;;;;;;;11.27;10.07;;;;;;;;;;5090619;28;21033;-59
2021/07/24 04:18:12;;;;;;;11.83;10.60;;;;;;;;;;5090422;28;20435;-58
2021/07/24 04:20:39;;;;;;;11.20;9.30;;;;;;;;;;5090699;28;20466;-59
2021/07/24 04:23:07;;;;;;;14.37;9.60;;;;;;;;;;5090955;28;20458;-58
2021/07/24 04:25:36;;;;;;;11.03;9.23;;;;;;;;;;5090776;28;20446;-58
2021/07/24 04:28:03;;;;;;;13.37;9.37;;;;;;;;;;5090335;28;21021;-58
2021/07/24 04:30:30;;;;;;;10.70;9.63;;;;;;;;;;5090555;28;20466;-59
2021/07/24 04:32:57;;;;;;;16.97;10.67;;;;;;;;;;5090246;28;20492;-58
2021/07/24 04:35:25;;;;;;;12.03;8.83;;;;;;;;;;5090563;28;20438;-58
2021/07/24 04:37:52;;;;;;;12.83;10.07;;;;;;;;;;5090164;28;20439;-59
2021/07/24 04:40:19;;;;;;;9.73;8.67;;;;;;;;;;5090316;28;20438;-59
2021/07/24 04:42:48;;;;;;;12.27;9.20;;;;;;;;;;5090391;28;20443;-59
2021/07/24 04:45:15;;;;;;;9.43;8.40;;;;;;;;;;5090210;28;20443;-58
2021/07/24 04:47:43;;;;;;;9.97;8.93;;;;;;;;;;5090257;28;20481;-58
2021/07/24 04:50:11;;;;;;;10.17;8.70;;;;;;;;;;5090255;28;20511;-58
2021/07/24 04:52:38;;;;;;;9.43;8.53;;;;;;;;;;5090099;28;20446;-58
2021/07/24 04:55:06;;;;;;;14.50;9.13;;;;;;;;;;5090112;28;20450;-58
2021/07/24 04:57:35;;;;;;;9.90;8.90;;;;;;;;;;5090837;28;20832;-58
2021/07/24 05:00:04;;;;;;;11.63;8.93;;;;;;;;;;5089704;28;20495;-58
2021/07/24 05:02:32;;;;;;;10.33;8.70;;;;;;;;;;5090169;28;20443;-59
2021/07/24 05:04:59;;;;;;;9.37;8.37;;;;;;;;;;5089658;28;20869;-58
2021/07/24 05:07:27;;;;;;;25.23;9.73;;;;;;;;;;5089445;28;20886;-58
2021/07/24 05:09:54;;;;;;;11.23;9.47;;;;;;;;;;5089995;28;20874;-59
2021/07/24 05:12:22;;;;;;;11.07;8.10;;;;;;;;;;5089390;28;20463;-57
2021/07/24 05:14:49;;;;;;;9.70;8.70;;;;;;;;;;5089388;28;20792;-58
2021/07/24 05:17:18;;;;;;;9.50;8.40;;;;;;;;;;5089685;28;20440;-57
2021/07/24 05:19:45;;;;;;;9.90;8.77;;;;;;;;;;5075996;28;20501;-59
2021/07/24 05:22:13;;;;;;;9.27;8.37;;;;;;;;;;5075794;28;20468;-59
2021/07/24 05:24:43;;;;;;;9.87;8.20;;;;;;;;;;5075894;28;20453;-57
2021/07/24 05:27:11;;;;;;;9.20;8.40;;;;;;;;;;5076191;28;20471;-59
2021/07/24 05:29:38;;;;;;;10.70;7.60;;;;;;;;;;5075854;28;20448;-59
2021/07/24 05:32:06;;;;;;;8.93;8.03;;;;;;;;;;5075751;28;21027;-59
2021/07/24 05:34:35;;;;;;;9.27;8.23;;;;;;;;;;5075710;28;20508;-58
2021/07/24 05:37:02;;;;;;;9.43;8.10;;;;;;;;;;5075596;28;20447;-59
2021/07/24 05:39:29;;;;;;;9.23;7.87;;;;;;;;;;5076139;28;20795;-59
2021/07/24 05:41:56;;;;;;;9.80;8.57;;;;;;;;;;5076087;28;20467;-59
2021/07/24 05:44:24;;;;;;;10.50;7.80;;;;;;;;;;5075894;28;20447;-60
2021/07/24 05:46:51;;;;;;;8.80;7.93;;;;;;;;;;5075599;28;20990;-59
2021/07/24 05:49:18;;;;;;;9.43;8.43;;;;;;;;;;5075627;28;20509;-59
2021/07/24 05:51:47;;;;;;;9.13;7.20;;;;;;;;;;5075804;28;20532;-59
2021/07/24 05:54:14;;;;;;;10.27;7.73;;;;;;;;;;5077489;28;20476;-57
2021/07/24 05:56:42;;;;;;;8.53;7.67;;;;;;;;;;5085292;28;20450;-58
2021/07/24 05:59:09;;;;;;;7.80;7.00;;;;;;;;;;5085231;28;20466;-58
2021/07/24 06:01:36;;;;;;;10.67;7.70;;;;;;;;;;5084438;28;20467;-58
2021/07/24 06:04:04;;;;;;;8.13;7.07;;;;;;;;;;5085748;28;20441;-58
2021/07/24 06:06:31;;;;;;;11.07;7.27;;;;;;;;;;5078117;28;21013;-59
2021/07/24 06:09:00;;;;;;;9.30;7.40;;;;;;;;;;5075972;28;20495;-59
2021/07/24 06:11:27;;;;;;;9.17;7.53;;;;;;;;;;5075263;28;20515;-59
2021/07/24 06:13:54;;;;;;;9.20;8.30;;;;;;;;;;5075450;28;20454;-59
2021/07/24 06:16:21;;;;;;;11.37;8.13;;;;;;;;;;5075282;28;20451;-61
2021/07/24 06:18:49;;;;;;;9.80;8.10;;;;;;;;;;5075475;28;20488;-60
2021/07/24 06:21:16;;;;;;;10.40;6.90;;;;;;;;;;5075606;28;20516;-60
2021/07/24 06:23:43;;;;;;;9.17;8.10;;;;;;;;;;5075002;28;20950;-60
2021/07/24 06:26:12;;;;;;;8.83;7.20;;;;;;;;;;5074935;28;20503;-60
2021/07/24 06:28:39;;;;;;;15.03;7.93;;;;;;;;;;5074913;28;20485;-59
2021/07/24 06:31:06;;;;;;;13.13;10.17;;;;;;;;;;5073844;28;20515;-58
2021/07/24 06:33:34;;;;;;;12.00;9.57;;;;;;;;;;5074804;28;20444;-57
2021/07/24 06:36:01;;;;;;;13.40;8.90;;;;;;;;;;5075180;28;20449;-61
2021/07/24 06:38:28;;;;;;;10.47;7.03;;;;;;;;;;5074848;28;20436;-61
2021/07/24 06:40:56;;;;;;;9.33;7.40;;;;;;;;;;5074644;28;20464;-59
2021/07/24 06:43:24;;;;;;;7.77;6.50;;;;;;;;;;5074794;28;20500;-59
2021/07/24 06:45:52;;;;;;;7.80;6.93;;;;;;;;;;5074866;28;20561;-59
2021/07/24 06:48:19;;;;;;;7.77;6.23;;;;;;;;;;5075538;28;20521;-58
2021/07/24 06:50:46;;;;;;;6.80;6.10;;;;;;;;;;5075389;28;20803;-60
2021/07/24 06:53:13;;;;;;;7.00;6.30;;;;;;;;;;5074854;28;20447;-60
2021/07/24 06:55:40;;;;;;;10.70;6.50;;;;;;;;;;5074716;28;20448;-59
2021/07/24 06:58:08;;;;;;;7.47;6.10;;;;;;;;;;5074129;28;20440;-58
2021/07/24 07:00:36;;;;;;;10.40;6.43;;;;;;;;;;5073790;28;20465;-58
2021/07/24 07:03:03;;;;;;;9.50;6.23;;;;;;;;;;5073830;28;20509;-59
2021/07/24 07:05:32;;;;;;;11.17;6.20;;;;;;;;;;5073759;28;20452;-59
2021/07/24 07:07:59;;;;;;;8.50;6.53;;;;;;;;;;5076202;28;20509;-59
2021/07/24 07:10:26;;;;;;;6.40;5.80;;;;;;;;;;5076072;28;20467;-59
2021/07/24 07:12:53;;;;;;;8.27;6.40;;;;;;;;;;5073953;28;20856;-59
2021/07/24 07:15:24;;;;;;;6.80;6.10;;;;;;;;;;5078007;28;20440;-57
2021/07/24 07:17:53;;;;;;;8.77;5.57;;;;;;;;;;5081393;28;20420;-59
2021/07/24 07:20:20;;;;;;;9.20;5.70;;;;;;;;;;5080444;28;20447;-57
2021/07/24 07:22:47;;;;;;;8.20;6.63;;;;;;;;;;5080950;28;20508;-59
2021/07/24 07:25:15;;;;;;;9.23;6.73;;;;;;;;;;5077176;28;20463;-58
2021/07/24 07:27:42;;;;;;;10.30;5.87;;;;;;;;;;5073857;28;20483;-59
2021/07/24 07:30:09;;;;;;;6.90;5.90;;;;;;;;;;5073871;28;20950;-58
2021/07/24 07:32:37;;;;;;;5.60;5.10;;;;;;;;;;5073693;28;20497;-60
2021/07/24 07:35:06;;;;;;;8.43;6.63;;;;;;;;;;5073932;28;20441;-59
2021/07/24 07:37:33;;;;;;;6.50;5.80;;;;;;;;;;5073681;28;20440;-59
2021/07/24 07:40:00;;;;;;;6.83;5.50;;;;;;;;;;5073865;28;20497;-59
2021/07/24 07:42:28;;;;;;;6.63;5.33;;;;;;;;;;5073865;28;20441;-60
2021/07/24 07:44:55;;;;;;;7.30;6.37;;;;;;;;;;5074065;28;20444;-59
2021/07/24 07:47:22;;;;;;;6.37;5.73;;;;;;;;;;5074027;28;20540;-58
2021/07/24 07:49:49;;;;;;;5.97;5.37;;;;;;;;;;5076757;28;20449;-59
2021/07/24 07:52:18;;;;;;;6.57;5.40;;;;;;;;;;5073486;28;20463;-59
2021/07/24 07:54:45;;;;;;;5.97;5.33;;;;;;;;;;5073228;28;20952;-60
2021/07/24 07:57:12;;;;;;;6.10;5.50;;;;;;;;;;5073628;28;20444;-59
2021/07/24 07:59:40;;;;;;;6.80;6.10;;;;;;;;;;5073560;28;20465;-59
2021/07/24 08:02:07;;;;;;;8.77;5.20;;;;;;;;;;5073828;28;20509;-57
2021/07/24 08:04:35;;;;;;;5.93;4.90;;;;;;;;;;5074478;28;20541;-59
2021/07/24 08:07:02;;;;;;;6.37;5.70;;;;;;;;;;5073622;28;20949;-59
2021/07/24 08:09:30;;;;;;;6.70;5.20;;;;;;;;;;5075320;28;20482;-59
2021/07/24 08:11:58;;;;;;;7.17;4.80;;;;;;;;;;5075406;28;20465;-58
2021/07/24 08:14:25;;;;;;;6.90;5.47;;;;;;;;;;5076955;28;20516;-59
2021/07/24 08:16:52;;;;;;;7.03;5.00;;;;;;;;;;5075721;28;20448;-59
2021/07/24 08:19:19;;;;;;;6.03;5.50;;;;;;;;;;5076812;28;20446;-59
2021/07/24 08:21:47;;;;;;;5.20;4.80;;;;;;;;;;5074372;28;20466;-58
2021/07/24 08:24:14;;;;;;;6.37;5.00;;;;;;;;;;5077136;28;20471;-59
2021/07/24 08:26:43;;;;;;;5.33;4.80;;;;;;;;;;5076184;28;20446;-60
2021/07/24 08:29:10;;;;;;;7.30;5.03;;;;;;;;;;5077225;28;21092;-59
2021/07/24 08:31:37;;;;;;;9.03;5.47;;;;;;;;;;5078520;28;20467;-60
2021/07/24 08:34:05;;;;;;;6.03;5.20;;;;;;;;;;5075438;28;20516;-60
2021/07/24 08:36:32;;;;;;;6.07;4.80;;;;;;;;;;5078914;28;20813;-58
2021/07/24 08:38:59;;;;;;;7.73;5.40;;;;;;;;;;5076424;28;20443;-59
2021/07/24 08:41:27;;;;;;;5.77;5.10;;;;;;;;;;5075045;28;20492;-60
2021/07/24 08:43:55;;;;;;;6.80;5.13;;;;;;;;;;5075583;28;20788;-59
2021/07/24 08:46:23;;;;;;;6.50;4.97;;;;;;;;;;5074499;28;20455;-59
2021/07/24 08:48:50;;;;;;;6.30;5.60;;;;;;;;;;5074341;28;20991;-59
2021/07/24 08:51:18;;;;;;;7.00;5.60;;;;;;;;;;5074580;28;20468;-59
2021/07/24 08:53:45;;;;;;;5.87;5.27;;;;;;;;;;5074930;28;20447;-59
2021/07/24 08:56:17;;;;;;;12.00;5.77;;;;;;;;;;5076554;28;20871;-59
2021/07/24 08:58:46;;;;;;;6.83;6.23;;;;;;;;;;5076809;28;20478;-59
2021/07/24 09:01:18;;;;;;;7.87;5.60;;;;;;;;;;5076331;28;20504;-59
2021/07/24 09:03:46;;;;;;;7.90;4.90;;;;;;;;;;5076603;28;20532;-59
2021/07/24 09:06:16;;;;;;;6.63;6.03;;;;;;;;;;5075841;28;20460;-60
2021/07/24 09:08:44;;;;;;;7.73;5.60;;;;;;;;;;5075895;28;20503;-60
2021/07/24 09:11:11;;;;;;;7.30;6.40;;;;;;;;;;5076442;28;20473;-58
2021/07/24 09:13:38;;;;;;;8.87;6.07;;;;;;;;;;5076069;28;20556;-60
2021/07/24 09:16:06;;;;;;;7.53;5.63;;;;;;;;;;5076215;28;20498;-60
2021/07/24 09:18:35;;;;;;;7.43;6.10;;;;;;;;;;5075750;28;20447;-59
2021/07/24 09:21:02;;;;;;;6.90;6.03;;;;;;;;;;5075681;28;20472;-58
2021/07/24 09:23:31;;;;;;;8.83;6.43;;;;;;;;;;5075667;28;20932;-60
2021/07/24 09:26:00;;;;;;;10.43;6.90;;;;;;;;;;5076068;28;20543;-60
2021/07/24 09:28:27;;;;;;;7.43;6.63;;;;;;;;;;5076023;28;20530;-57
2021/07/24 09:30:55;;;;;;;8.50;6.80;;;;;;;;;;5075436;28;20466;-60
2021/07/24 09:33:22;;;;;;;8.93;7.30;;;;;;;;;;5075835;28;20449;-59
2021/07/24 09:35:54;;;;;;;7.50;6.80;;;;;;;;;;5076091;28;20457;-60
2021/07/24 09:38:27;;;;;;;6.80;6.07;;;;;;;;;;5076468;28;20419;-60
2021/07/24 09:40:55;;;;;;;8.50;6.53;;;;;;;;;;5075993;28;20463;-60
2021/07/24 09:43:29;;;;;;;7.67;6.87;;;;;;;;;;5075727;28;20843;-59
2021/07/24 09:46:08;;;;;;;8.43;6.50;;;;;;;;;;5075635;28;20466;-58
2021/07/24 09:48:35;;;;;;;7.80;7.03;;;;;;;;;;5076217;28;20468;-59
2021/07/24 09:51:04;;;;;;;9.70;8.03;;;;;;;;;;5075536;28;20466;-58
2021/07/24 09:53:38;;;;;;;8.70;7.80;;;;;;;;;;5075518;28;20453;-59
2021/07/24 09:56:05;;;;;;;9.00;8.10;;;;;;;;;;5075304;28;20492;-59
2021/07/24 09:58:33;;;;;;;8.80;7.90;;;;;;;;;;5075369;28;20439;-59
2021/07/24 10:01:03;;;;;;;9.20;8.10;;;;;;;;;;5074988;28;20471;-58
2021/07/24 10:03:31;;;;;;;9.77;7.87;;;;;;;;;;5076232;28;20796;-59
2021/07/24 10:06:01;;;;;;;12.77;8.37;;;;;;;;;;5075265;28;20529;-58
2021/07/24 10:08:31;;;;;;;12.07;7.73;;;;;;;;;;5075390;28;20565;-59
2021/07/24 10:10:58;;;;;;;8.27;7.47;;;;;;;;;;5075689;28;20480;-58
2021/07/24 10:13:26;;;;;;;13.97;8.03;;;;;;;;;;5075065;28;20940;-58
2021/07/24 10:15:53;;;;;;;9.10;8.30;;;;;;;;;;5075311;28;20447;-58
2021/07/24 10:18:20;;;;;;;9.30;8.00;;;;;;;;;;5075086;28;20502;-59
2021/07/24 10:20:48;;;;;;;10.67;8.00;;;;;;;;;;5075468;28;20503;-59
2021/07/24 10:23:17;;;;;;;8.60;7.60;;;;;;;;;;5074846;28;20448;-60
2021/07/24 10:25:51;;;;;;;9.60;7.90;;;;;;;;;;5074824;28;20452;-58
2021/07/24 10:28:21;;;;;;;9.70;8.10;;;;;;;;;;5075022;28;20567;-58
2021/07/24 10:30:50;;;;;;;9.20;7.90;;;;;;;;;;5075486;28;20867;-59
2021/07/24 10:33:18;;;;;;;8.87;8.07;;;;;;;;;;5074945;28;20445;-59
2021/07/24 10:35:45;;;;;;;9.27;8.10;;;;;;;;;;5074577;28;20441;-59
2021/07/24 10:38:29;;;;;;;8.13;7.43;;;;;;;;;;5074614;28;20865;-59
2021/07/24 10:41:18;;;;;;;8.87;7.73;;;;;;;;;;5074342;28;21047;-58
2021/07/24 10:43:59;;;;;;;8.50;7.53;;;;;;;;;;5074472;28;20449;-59
2021/07/24 10:46:41;;;;;;;9.03;7.70;;;;;;;;;;5074568;28;20546;-59
2021/07/24 10:49:08;;;;;;;9.20;8.30;;;;;;;;;;5074669;28;20474;-59
2021/07/24 10:51:54;;;;;;;9.90;8.57;;;;;;;;;;5074035;28;21014;-58
2021/07/24 10:54:21;;;;;;;9.20;8.40;;;;;;;;;;5073980;28;20434;-58
2021/07/24 10:56:49;;;;;;;9.43;8.43;;;;;;;;;;5074052;28;20931;-59
2021/07/24 10:59:21;;;;;;;9.63;8.83;;;;;;;;;;5074428;28;20439;-59
2021/07/24 11:01:49;;;;;;;8.83;7.93;;;;;;;;;;5074187;28;20466;-59
2021/07/24 11:04:34;;;;;;;10.80;9.57;;;;;;;;;;5074670;28;20529;-58
2021/07/24 11:07:17;;;;;;;10.63;9.17;;;;;;;;;;5074682;28;20580;-58
2021/07/24 11:09:44;;;;;;;9.70;8.70;;;;;;;;;;5074024;28;20486;-59
2021/07/24 11:12:12;;;;;;;10.30;9.27;;;;;;;;;;5074105;28;20973;-60
2021/07/24 11:14:58;;;;;;;11.00;9.17;;;;;;;;;;5074604;28;20448;-59
2021/07/24 11:17:27;;;;;;;10.13;9.23;;;;;;;;;;5074412;28;20431;-60
2021/07/24 11:20:12;;;;;;;14.37;9.50;;;;;;;;;;5074986;28;20530;-60
2021/07/24 11:23:00;;;;;;;10.37;9.37;;;;;;;;;;5073493;28;21015;-60
2021/07/24 11:25:40;;;;;;;12.27;9.43;;;;;;;;;;5073826;28;20459;-59
2021/07/24 11:28:07;;;;;;;9.53;8.63;;;;;;;;;;5073576;28;20435;-59
2021/07/24 11:30:35;;;;;;;10.40;9.40;;;;;;;;;;5073440;28;20485;-60
2021/07/24 11:33:05;;;;;;;10.10;9.10;;;;;;;;;;5073724;28;20792;-59
2021/07/24 11:35:37;;;;;;;10.50;9.50;;;;;;;;;;5073362;28;20871;-59
2021/07/24 11:38:04;;;;;;;10.90;9.80;;;;;;;;;;5073790;28;20474;-57
2021/07/24 11:40:32;;;;;;;10.73;9.63;;;;;;;;;;5073295;28;20469;-60
2021/07/24 11:43:01;;;;;;;10.20;9.07;;;;;;;;;;5073508;28;20445;-59
2021/07/24 11:45:28;;;;;;;10.03;9.03;;;;;;;;;;5073320;28;20441;-60
2021/07/24 11:48:13;;;;;;;11.00;10.00;;;;;;;;;;5073634;28;20538;-60
2021/07/24 11:50:41;;;;;;;10.07;9.13;;;;;;;;;;5073158;28;20511;-60
2021/07/24 11:53:08;;;;;;;12.40;9.80;;;;;;;;;;5073483;28;20452;-60
2021/07/24 11:55:36;;;;;;;9.40;8.60;;;;;;;;;;5073514;28;20791;-61
2021/07/24 11:58:04;;;;;;;11.33;10.23;;;;;;;;;;5073333;28;20446;-60
2021/07/24 12:00:32;;;;;;;11.60;9.97;;;;;;;;;;5074441;28;20462;-60
2021/07/24 12:03:26;;;;;;;12.40;10.50;;;;;;;;;;5075544;28;20443;-59
2021/07/24 12:05:57;;;;;;;11.13;10.13;;;;;;;;;;5037746;28;20452;-60
2021/07/24 12:08:27;;;;;;;11.20;9.60;;;;;;;;;;5074225;28;20487;-60
2021/07/24 12:10:54;;;;;;;12.53;11.23;;;;;;;;;;5073767;28;20473;-59
2021/07/24 12:13:23;;;;;;;11.17;10.17;;;;;;;;;;5073912;28;20505;-61
2021/07/24 12:16:04;;;;;;;11.70;10.67;;;;;;;;;;5074089;28;20449;-60
2021/07/24 12:18:39;;;;;;;12.13;10.93;;;;;;;;;;5074219;28;20929;-60
2021/07/24 12:21:13;;;;;;;13.30;10.73;;;;;;;;;;5072814;28;20974;-59
2021/07/24 12:23:44;;;;;;;11.57;9.93;;;;;;;;;;5072908;28;20434;-60
2021/07/24 12:26:12;;;;;;;12.20;11.00;;;;;;;;;;5073524;28;20450;-60
2021/07/24 12:28:40;;;;;;;11.43;10.43;;;;;;;;;;5074624;28;20453;-60
2021/07/24 12:31:17;;;;;;;11.10;10.10;;;;;;;;;;5077058;28;20972;-59
2021/07/24 12:33:45;;;;;;;12.43;11.23;;;;;;;;;;5076844;28;20885;-61
2021/07/24 12:36:13;;;;;;;11.60;10.60;;;;;;;;;;5081293;28;20507;-60
2021/07/24 12:38:41;;;;;;;15.10;10.40;;;;;;;;;;5087533;28;20537;-59
2021/07/24 12:41:08;;;;;;;11.63;10.63;;;;;;;;;;5085719;28;20503;-60
2021/07/24 12:43:37;;;;;;;12.13;10.70;;;;;;;;;;5084359;28;20928;-61
2021/07/24 12:46:17;;;;;;;11.43;10.20;;;;;;;;;;5083896;28;20504;-60
2021/07/24 12:48:52;;;;;;;12.33;11.00;;;;;;;;;;5083190;28;20433;-63
2021/07/24 12:51:34;;;;;;;11.83;10.70;;;;;;;;;;5084600;28;20492;-61
2021/07/24 12:54:08;;;;;;;11.83;10.73;;;;;;;;;;5084294;28;20432;-61
2021/07/24 12:56:36;;;;;;;11.80;10.70;;;;;;;;;;5081006;28;20441;-61
2021/07/24 12:59:03;;;;;;;14.43;10.70;;;;;;;;;;5079184;28;20488;-61
2021/07/24 13:01:30;;;;;;;11.50;10.23;;;;;;;;;;5077548;28;20981;-62
2021/07/24 13:03:57;;;;;;;16.47;11.67;;;;;;;;;;5078231;28;20461;-61
2021/07/24 13:06:28;;;;;;;13.87;11.73;;;;;;;;;;5077350;28;20458;-61
2021/07/24 13:08:59;;;;;;;12.13;10.87;;;;;;;;;;5077031;28;20497;-61
2021/07/24 13:11:27;;;;;;;11.57;10.50;;;;;;;;;;5077646;28;20519;-61
2021/07/24 13:13:54;;;;;;;12.23;10.37;;;;;;;;;;5077972;28;20484;-60
2021/07/24 13:16:22;;;;;;;11.30;10.30;;;;;;;;;;5076751;28;20444;-60
2021/07/24 13:18:49;;;;;;;10.30;9.30;;;;;;;;;;5076899;28;21016;-60
2021/07/24 13:21:16;;;;;;;10.63;9.57;;;;;;;;;;5076973;28;20511;-60
2021/07/24 13:23:51;;;;;;;11.33;10.30;;;;;;;;;;5077039;28;20960;-60
2021/07/24 13:29:03;;;;;;;13.70;10.17;;;;;;;;;;5077571;28;20444;-61
2021/07/24 13:31:30;;;;;;;14.33;10.60;;;;;;;;;;5077872;28;20469;-62
2021/07/24 13:33:58;;;;;;;11.13;9.80;;;;;;;;;;5077942;28;20472;-61
2021/07/24 13:36:25;;;;;;;11.63;10.43;;;;;;;;;;5077938;28;20853;-60
2021/07/24 13:38:54;;;;;;;12.20;9.73;;;;;;;;;;5076205;28;20450;-59
2021/07/24 13:41:21;;;;;;;12.17;10.87;;;;;;;;;;5076288;28;20544;-60
2021/07/24 13:43:48;;;;;;;10.27;9.10;;;;;;;;;;5076179;28;20946;-60
2021/07/24 13:46:15;;;;;;;11.90;10.70;;;;;;;;;;5075993;28;20446;-61
2021/07/24 13:48:42;;;;;;;10.83;9.83;;;;;;;;;;5075893;28;20451;-58
2021/07/24 13:51:10;;;;;;;10.77;9.77;;;;;;;;;;5075306;28;20547;-60
2021/07/24 13:53:37;;;;;;;10.80;9.90;;;;;;;;;;5075644;28;20500;-61
2021/07/24 13:56:06;;;;;;;11.93;10.83;;;;;;;;;;5075288;28;20450;-60
2021/07/24 13:58:33;;;;;;;11.30;10.20;;;;;;;;;;5075242;28;20454;-59
2021/07/24 14:01:00;;;;;;;11.33;10.30;;;;;;;;;;5075190;28;21043;-60
2021/07/24 14:03:28;;;;;;;12.73;11.07;;;;;;;;;;5075343;28;20451;-60
2021/07/24 14:06:02;;;;;;;11.93;10.60;;;;;;;;;;5075032;28;20878;-59
2021/07/24 14:08:29;;;;;;;11.37;10.37;;;;;;;;;;5075493;28;20529;-60
2021/07/24 14:10:57;;;;;;;11.60;10.60;;;;;;;;;;5075149;28;20917;-61
2021/07/24 14:13:25;;;;;;;10.87;9.70;;;;;;;;;;5075279;28;20447;-60
2021/07/24 14:15:53;;;;;;;10.30;9.40;;;;;;;;;;5074739;28;20443;-61
2021/07/24 14:18:20;;;;;;;11.70;10.27;;;;;;;;;;5075063;28;20496;-60
2021/07/24 14:20:48;;;;;;;11.17;10.13;;;;;;;;;;5094683;22;20508;-54
2021/07/24 14:23:15;;;;;;;11.00;9.87;;;;;;;;;;5034975;28;20433;-55
2021/07/24 14:25:42;;;;;;;11.23;10.10;;;;;;;;;;5034698;28;20933;-55
2021/07/24 14:28:10;;;;;;;12.80;11.50;;;;;;;;;;5034561;28;20503;-56
2021/07/24 14:30:38;;;;;;;10.97;9.97;;;;;;;;;;5034234;28;20900;-56
2021/07/24 14:33:05;;;;;;;11.20;10.20;;;;;;;;;;5034709;28;20498;-55
2021/07/24 14:35:34;;;;;;;13.33;11.07;;;;;;;;;;5034121;28;20991;-52
2021/07/24 14:38:01;;;;;;;10.57;9.60;;;;;;;;;;5034339;28;20445;-55
2021/07/24 14:40:28;;;;;;;10.90;9.80;;;;;;;;;;5034154;28;20503;-54
2021/07/24 14:42:56;;;;;;;11.50;10.37;;;;;;;;;;5034469;28;20452;-55
2021/07/24 14:45:26;;;;;;;11.60;10.50;;;;;;;;;;5034147;28;20441;-55
2021/07/24 14:47:55;;;;;;;11.47;10.43;;;;;;;;;;5034363;28;20483;-54